| time (UTC) | temp C | wind direction | speed KPH | gust KPH | rain 1hr cm | rain 24hr cm | rain mn cm | humidity % | barometer mb |
| 20260906210818 | 20 | 45 | 4.8 | 12.9 | 0.00 | 0.00 | 0.00 | 70 | 1020.0 |
| 20260906205816 | 20 | 315 | 1.6 | 1.6 | 0.00 | 0.00 | 0.00 | 70 | 1020.1 |
| 20260906204837 | 20 | 293 | 1.6 | 3.2 | 0.00 | 0.00 | 0.00 | 67 | 1020.0 |
| 20260906203816 | 20 | 23 | 1.6 | 3.2 | 0.00 | 0.00 | 0.00 | 69 | 1020.0 |
| 20260906202816 | 20 | 45 | 1.6 | 4.8 | 0.00 | 0.00 | 0.00 | 68 | 1019.8 |
| 20260906201836 | 21 | 68 | 4.8 | 16.1 | 0.00 | 0.00 | 0.00 | 68 | 1019.8 |
| 20260906200816 | 21 | 68 | 4.8 | 8.0 | 0.00 | 0.00 | 0.00 | 66 | 1019.9 |
| 20260906195816 | 21 | 338 | 1.6 | 4.8 | 0.00 | 0.00 | 0.00 | 70 | 1019.9 |
| 20260906194816 | 21 | 270 | 4.8 | 8.0 | 0.00 | 0.00 | 0.00 | 70 | 1020.0 |
| 20260906193816 | 21 | 68 | 8.0 | 14.5 | 0.00 | 0.00 | 0.00 | 70 | 1020.1 |
| 20260906192816 | 21 | 338 | 3.2 | 6.4 | 0.00 | 0.00 | 0.00 | 70 | 1019.9 |
| 20260906191816 | 21 | 45 | 3.2 | 6.4 | 0.00 | 0.00 | 0.00 | 71 | 1020.0 |
| 20260906190815 | 21 | 45 | 4.8 | 9.7 | 0.00 | 0.00 | 0.00 | 71 | 1019.9 |
| 20260906185816 | 21 | 68 | 6.4 | 11.3 | 0.00 | 0.00 | 0.00 | 67 | 1019.9 |
| 20260906184815 | 21 | 45 | 3.2 | 6.4 | 0.00 | 0.00 | 0.00 | 70 | 1020.0 |
| 20260906183816 | 21 | 68 | 8.0 | 16.1 | 0.00 | 0.00 | 0.00 | 70 | 1019.9 |
| 20260906182815 | 21 | 23 | 4.8 | 6.4 | 0.00 | 0.00 | 0.00 | 72 | 1020.0 |
| 20260906181815 | 22 | 90 | 1.6 | 4.8 | 0.00 | 0.00 | 0.00 | 73 | 1020.0 |
| 20260906180815 | 21 | 45 | 3.2 | 6.4 | 0.00 | 0.00 | 0.00 | 73 | 1020.1 |
| 20260906175815 | 21 | 68 | 3.2 | 6.4 | 0.00 | 0.00 | 0.00 | 74 | 1020.0 |
| 20260906174815 | 20 | 315 | 3.2 | 3.2 | 0.00 | 0.00 | 0.00 | 76 | 1020.0 |
| 20260906173815 | 21 | 45 | 3.2 | 6.4 | 0.00 | 0.00 | 0.00 | 74 | 1020.1 |
| 20260906172815 | 21 | 45 | 3.2 | 6.4 | 0.00 | 0.00 | 0.00 | 73 | 1020.0 |
| 20260906171815 | 21 | 23 | 3.2 | 8.0 | 0.00 | 0.00 | 0.00 | 73 | 1020.1 |
| 20260906170815 | 21 | 68 | 6.4 | 14.5 | 0.00 | 0.00 | 0.00 | 73 | 1020.0 |
| 20260906165815 | 21 | 68 | 6.4 | 12.9 | 0.00 | 0.00 | 0.00 | 71 | 1019.9 |
| 20260906164815 | 21 | 0.0 | 1.6 | 0.00 | 0.00 | 0.00 | 71 | 1019.9 | |
| 20260906163815 | 21 | 113 | 3.2 | 6.4 | 0.00 | 0.00 | 0.00 | 72 | 1019.8 |
| 20260906162815 | 21 | 0 | 4.8 | 9.7 | 0.00 | 0.00 | 0.00 | 72 | 1019.8 |
| 20260906161815 | 20 | 135 | 6.4 | 14.5 | 0.00 | 0.00 | 0.00 | 76 | 1019.8 |
| 20260906160816 | 20 | 23 | 6.4 | 16.1 | 0.00 | 0.00 | 0.00 | 74 | 1019.9 |
| 20260906155815 | 20 | 45 | 4.8 | 6.4 | 0.00 | 0.00 | 0.00 | 75 | 1019.8 |
| 20260906154815 | 21 | 45 | 3.2 | 14.5 | 0.00 | 0.00 | 0.00 | 76 | 1019.8 |
| 20260906153815 | 21 | 45 | 4.8 | 9.7 | 0.00 | 0.00 | 0.00 | 74 | 1019.7 |
| 20260906152815 | 21 | 68 | 6.4 | 14.5 | 0.00 | 0.00 | 0.00 | 75 | 1019.5 |
| 20260906151835 | 22 | 45 | 4.8 | 9.7 | 0.00 | 0.00 | 0.00 | 75 | 1019.5 |
| 20260906150835 | 21 | 45 | 8.0 | 11.3 | 0.00 | 0.00 | 0.00 | 77 | 1019.6 |
| 20260906145815 | 20 | 68 | 6.4 | 11.3 | 0.00 | 0.00 | 0.00 | 78 | 1019.6 |
| 20260906144815 | 20 | 45 | 8.0 | 17.7 | 0.00 | 0.00 | 0.00 | 77 | 1019.5 |
| 20260906143815 | 20 | 68 | 8.0 | 16.1 | 0.00 | 0.00 | 0.00 | 79 | 1019.5 |
| 20260906142815 | 20 | 68 | 1.6 | 6.4 | 0.00 | 0.00 | 0.00 | 79 | 1019.5 |
| 20260906141815 | 20 | 23 | 3.2 | 6.4 | 0.00 | 0.00 | 0.00 | 79 | 1019.5 |
| 20260906140815 | 19 | 68 | 3.2 | 9.7 | 0.00 | 0.00 | 0.00 | 80 | 1019.2 |
| 20260906135815 | 19 | 90 | 1.6 | 3.2 | 0.00 | 0.00 | 0.00 | 83 | 1019.0 |
| 20260906134815 | 19 | 68 | 3.2 | 6.4 | 0.00 | 0.00 | 0.00 | 83 | 1019.0 |
| 20260906133815 | 19 | 0.0 | 3.2 | 0.00 | 0.00 | 0.00 | 85 | 1019.0 | |
| 20260906132815 | 19 | 68 | 3.2 | 8.0 | 0.00 | 0.00 | 0.00 | 85 | 1019.0 |
| 20260906131815 | 19 | 0.0 | 1.6 | 0.00 | 0.00 | 0.00 | 86 | 1019.0 | |
| 20260906130815 | 19 | 68 | 4.8 | 8.0 | 0.00 | 0.00 | 0.00 | 86 | 1018.8 |
| 20260906125815 | 19 | 90 | 1.6 | 3.2 | 0.00 | 0.00 | 0.00 | 86 | 1018.8 |
| 20260906124815 | 19 | 45 | 3.2 | 8.0 | 0.00 | 0.00 | 0.00 | 88 | 1018.8 |
| 20260906123817 | 19 | 68 | 4.8 | 9.7 | 0.00 | 0.00 | 0.00 | 91 | 1018.5 |
| 20260906122817 | 18 | 45 | 1.6 | 3.2 | 0.00 | 0.00 | 0.00 | 93 | 1018.6 |
| 20260906121816 | 18 | 45 | 4.8 | 6.4 | 0.00 | 0.00 | 0.00 | 95 | 1018.5 |
| 20260906120817 | 18 | 23 | 6.4 | 9.7 | 0.00 | 0.00 | 0.00 | 96 | 1018.4 |
| 20260906115817 | 18 | 68 | 3.2 | 8.0 | 0.00 | 0.00 | 0.00 | 96 | 1018.3 |
| 20260906114837 | 16 | 0.0 | 1.6 | 0.00 | 0.00 | 0.00 | 96 | 1018.0 | |
| 20260906113836 | 16 | 0.0 | 0.0 | 0.00 | 0.00 | 0.00 | 96 | 1017.8 | |
| 20260906112816 | 16 | 0.0 | 0.0 | 0.00 | 0.00 | 0.00 | 96 | 1017.7 | |
| 20260906111837 | 16 | 0.0 | 0.0 | 0.00 | 0.00 | 0.00 | 96 | 1017.7 | |
| 20260906111754 | 15 | 0.0 | 0.0 | 0.00 | 0.00 | 0.00 | 96 | 1017.8 |